sensor_id;sensor_type;location;lat;lon;timestamp;pressure;altitude;pressure_sealevel;temperature;humidity
22580;BME280;11456;47.030;15.396;2023-07-28T00:00:27;97083.22;;;17.75;100.00
22580;BME280;11456;47.030;15.396;2023-07-28T00:02:54;97089.72;;;17.74;100.00
22580;BME280;11456;47.030;15.396;2023-07-28T00:05:21;97091.81;;;17.58;100.00
22580;BME280;11456;47.030;15.396;2023-07-28T00:07:47;97095.97;;;17.35;100.00
22580;BME280;11456;47.030;15.396;2023-07-28T00:10:14;97087.19;;;17.52;100.00
22580;BME280;11456;47.030;15.396;2023-07-28T00:12:40;97082.81;;;17.45;100.00
22580;BME280;11456;47.030;15.396;2023-07-28T00:15:07;97081.78;;;17.66;100.00
22580;BME280;11456;47.030;15.396;2023-07-28T00:17:34;97076.34;;;17.66;100.00
22580;BME280;11456;47.030;15.396;2023-07-28T00:20:01;97078.81;;;17.54;100.00
22580;BME280;11456;47.030;15.396;2023-07-28T00:22:27;97075.88;;;17.42;100.00
22580;BME280;11456;47.030;15.396;2023-07-28T00:24:54;97068.53;;;17.49;100.00
22580;BME280;11456;47.030;15.396;2023-07-28T00:27:20;97069.38;;;17.50;100.00
22580;BME280;11456;47.030;15.396;2023-07-28T00:29:47;97061.22;;;17.30;100.00
22580;BME280;11456;47.030;15.396;2023-07-28T00:32:13;97066.66;;;17.43;100.00
22580;BME280;11456;47.030;15.396;2023-07-28T00:34:40;97068.56;;;17.62;100.00
22580;BME280;11456;47.030;15.396;2023-07-28T00:37:06;97068.75;;;17.54;100.00
22580;BME280;11456;47.030;15.396;2023-07-28T00:39:34;97064.16;;;17.48;100.00
22580;BME280;11456;47.030;15.396;2023-07-28T00:42:00;97059.13;;;17.52;100.00
22580;BME280;11456;47.030;15.396;2023-07-28T00:44:27;97057.66;;;17.43;100.00
22580;BME280;11456;47.030;15.396;2023-07-28T00:46:53;97058.69;;;17.42;100.00
22580;BME280;11456;47.030;15.396;2023-07-28T00:49:20;97055.78;;;17.43;100.00
22580;BME280;11456;47.030;15.396;2023-07-28T00:51:47;97062.03;;;17.11;100.00
22580;BME280;11456;47.030;15.396;2023-07-28T00:54:14;97062.91;;;17.24;100.00
22580;BME280;11456;47.030;15.396;2023-07-28T00:56:40;97051.81;;;17.26;100.00
22580;BME280;11456;47.030;15.396;2023-07-28T00:59:07;97053.69;;;17.19;100.00
22580;BME280;11456;47.030;15.396;2023-07-28T01:01:33;97056.63;;;17.31;100.00
22580;BME280;11456;47.030;15.396;2023-07-28T01:04:00;97053.25;;;17.42;100.00
22580;BME280;11456;47.030;15.396;2023-07-28T01:06:33;97044.88;;;17.30;100.00
22580;BME280;11456;47.030;15.396;2023-07-28T01:09:03;97043.00;;;17.31;100.00
22580;BME280;11456;47.030;15.396;2023-07-28T01:11:30;97056.63;;;17.37;100.00
22580;BME280;11456;47.030;15.396;2023-07-28T01:13:56;97049.69;;;17.41;100.00
22580;BME280;11456;47.030;15.396;2023-07-28T01:16:23;97048.25;;;17.45;100.00
22580;BME280;11456;47.030;15.396;2023-07-28T01:18:50;97053.69;;;17.45;100.00
22580;BME280;11456;47.030;15.396;2023-07-28T01:21:18;97056.41;;;17.58;100.00
22580;BME280;11456;47.030;15.396;2023-07-28T01:26:12;97045.72;;;17.44;100.00
22580;BME280;11456;47.030;15.396;2023-07-28T01:28:42;97050.34;;;17.50;100.00
22580;BME280;11456;47.030;15.396;2023-07-28T01:31:09;97051.63;;;17.47;100.00
22580;BME280;11456;47.030;15.396;2023-07-28T01:33:36;97053.47;;;17.14;100.00
22580;BME280;11456;47.030;15.396;2023-07-28T01:36:03;97052.81;;;16.99;100.00
22580;BME280;11456;47.030;15.396;2023-07-28T01:38:30;97048.25;;;17.19;100.00
22580;BME280;11456;47.030;15.396;2023-07-28T01:40:56;97053.69;;;17.06;100.00
22580;BME280;11456;47.030;15.396;2023-07-28T01:43:23;97045.31;;;17.27;100.00
22580;BME280;11456;47.030;15.396;2023-07-28T01:45:49;97048.25;;;17.32;100.00
22580;BME280;11456;47.030;15.396;2023-07-28T01:48:16;97050.13;;;17.38;100.00
22580;BME280;11456;47.030;15.396;2023-07-28T01:50:43;97039.88;;;17.27;100.00
22580;BME280;11456;47.030;15.396;2023-07-28T01:53:09;97031.69;;;17.01;100.00
22580;BME280;11456;47.030;15.396;2023-07-28T01:55:36;97032.56;;;17.21;100.00
22580;BME280;11456;47.030;15.396;2023-07-28T01:58:02;97030.22;;;17.11;100.00
22580;BME280;11456;47.030;15.396;2023-07-28T02:00:29;97032.34;;;16.96;100.00
22580;BME280;11456;47.030;15.396;2023-07-28T02:02:56;97048.66;;;16.90;100.00
22580;BME280;11456;47.030;15.396;2023-07-28T02:05:24;97046.13;;;16.81;100.00
22580;BME280;11456;47.030;15.396;2023-07-28T02:07:51;97038.97;;;16.67;100.00
22580;BME280;11456;47.030;15.396;2023-07-28T02:10:17;97044.00;;;16.70;100.00
22580;BME280;11456;47.030;15.396;2023-07-28T02:12:44;97039.31;;;16.51;100.00
22580;BME280;11456;47.030;15.396;2023-07-28T02:15:11;97041.47;;;16.69;100.00
22580;BME280;11456;47.030;15.396;2023-07-28T02:17:37;97040.63;;;16.68;100.00
22580;BME280;11456;47.030;15.396;2023-07-28T02:20:04;97041.34;;;16.36;100.00
22580;BME280;11456;47.030;15.396;2023-07-28T02:22:31;97038.06;;;16.54;100.00
22580;BME280;11456;47.030;15.396;2023-07-28T02:24:58;97039.53;;;16.56;100.00
22580;BME280;11456;47.030;15.396;2023-07-28T02:27:28;97029.22;;;16.32;100.00
22580;BME280;11456;47.030;15.396;2023-07-28T02:29:54;97028.91;;;16.14;100.00
22580;BME280;11456;47.030;15.396;2023-07-28T02:32:21;97026.63;;;16.11;100.00
22580;BME280;11456;47.030;15.396;2023-07-28T02:34:48;97019.16;;;16.26;100.00
22580;BME280;11456;47.030;15.396;2023-07-28T02:37:14;97032.16;;;16.37;100.00
22580;BME280;11456;47.030;15.396;2023-07-28T02:39:41;97031.22;;;16.17;100.00
22580;BME280;11456;47.030;15.396;2023-07-28T02:42:08;97035.00;;;16.16;100.00
22580;BME280;11456;47.030;15.396;2023-07-28T02:44:35;97042.16;;;16.30;100.00
22580;BME280;11456;47.030;15.396;2023-07-28T02:47:01;97038.84;;;16.41;100.00
22580;BME280;11456;47.030;15.396;2023-07-28T02:49:28;97038.81;;;16.28;100.00
22580;BME280;11456;47.030;15.396;2023-07-28T02:51:55;97041.28;;;16.23;100.00
22580;BME280;11456;47.030;15.396;2023-07-28T02:54:21;97036.25;;;16.20;100.00
22580;BME280;11456;47.030;15.396;2023-07-28T02:56:50;97046.75;;;16.29;100.00
22580;BME280;11456;47.030;15.396;2023-07-28T02:59:17;97038.81;;;16.28;100.00
22580;BME280;11456;47.030;15.396;2023-07-28T03:01:43;97038.06;;;15.99;100.00
22580;BME280;11456;47.030;15.396;2023-07-28T03:04:10;97038.50;;;16.10;100.00
22580;BME280;11456;47.030;15.396;2023-07-28T03:06:56;97043.38;;;16.27;100.00
22580;BME280;11456;47.030;15.396;2023-07-28T03:09:23;97039.84;;;16.27;100.00
22580;BME280;11456;47.030;15.396;2023-07-28T03:11:58;97048.94;;;15.99;100.00
22580;BME280;11456;47.030;15.396;2023-07-28T03:14:25;97039.91;;;15.92;100.00
22580;BME280;11456;47.030;15.396;2023-07-28T03:16:52;97047.47;;;16.03;100.00
22580;BME280;11456;47.030;15.396;2023-07-28T03:19:18;97037.41;;;15.97;100.00
22580;BME280;11456;47.030;15.396;2023-07-28T03:21:45;97036.56;;;15.97;100.00
22580;BME280;11456;47.030;15.396;2023-07-28T03:24:11;97042.06;;;16.10;100.00
22580;BME280;11456;47.030;15.396;2023-07-28T03:26:38;97026.97;;;16.01;100.00
22580;BME280;11456;47.030;15.396;2023-07-28T03:29:05;97023.16;;;15.89;100.00
22580;BME280;11456;47.030;15.396;2023-07-28T03:31:32;97029.44;;;15.89;100.00
22580;BME280;11456;47.030;15.396;2023-07-28T03:34:03;97033.72;;;15.49;100.00
22580;BME280;11456;47.030;15.396;2023-07-28T03:36:30;97031.78;;;15.64;100.00
22580;BME280;11456;47.030;15.396;2023-07-28T03:38:58;97031.09;;;15.56;100.00
22580;BME280;11456;47.030;15.396;2023-07-28T03:41:25;97035.41;;;15.50;100.00
22580;BME280;11456;47.030;15.396;2023-07-28T03:43:52;97042.44;;;15.38;100.00
22580;BME280;11456;47.030;15.396;2023-07-28T03:46:19;97041.53;;;15.31;100.00
22580;BME280;11456;47.030;15.396;2023-07-28T03:48:46;97049.47;;;15.33;100.00
22580;BME280;11456;47.030;15.396;2023-07-28T03:51:12;97043.44;;;15.58;100.00
22580;BME280;11456;47.030;15.396;2023-07-28T03:53:39;97045.03;;;15.74;100.00
22580;BME280;11456;47.030;15.396;2023-07-28T03:56:05;97041.16;;;15.62;100.00
22580;BME280;11456;47.030;15.396;2023-07-28T03:58:32;97042.00;;;15.35;100.00
22580;BME280;11456;47.030;15.396;2023-07-28T04:00:59;97046.13;;;15.31;100.00
22580;BME280;11456;47.030;15.396;2023-07-28T04:03:25;97040.41;;;15.47;100.00
22580;BME280;11456;47.030;15.396;2023-07-28T04:05:52;97051.69;;;15.50;100.00
22580;BME280;11456;47.030;15.396;2023-07-28T04:08:18;97049.66;;;15.52;100.00
22580;BME280;11456;47.030;15.396;2023-07-28T04:10:45;97044.03;;;15.54;100.00
22580;BME280;11456;47.030;15.396;2023-07-28T04:13:12;97052.53;;;15.51;100.00
22580;BME280;11456;47.030;15.396;2023-07-28T04:15:38;97050.00;;;15.49;100.00
22580;BME280;11456;47.030;15.396;2023-07-28T04:18:06;97049.47;;;15.33;100.00
22580;BME280;11456;47.030;15.396;2023-07-28T04:20:33;97046.75;;;15.54;100.00
22580;BME280;11456;47.030;15.396;2023-07-28T04:23:00;97043.50;;;15.65;100.00
22580;BME280;11456;47.030;15.396;2023-07-28T04:25:31;97037.06;;;15.73;100.00
22580;BME280;11456;47.030;15.396;2023-07-28T04:27:57;97034.22;;;15.53;100.00
22580;BME280;11456;47.030;15.396;2023-07-28T04:30:24;97038.44;;;15.62;100.00
22580;BME280;11456;47.030;15.396;2023-07-28T04:32:51;97039.47;;;15.95;100.00
22580;BME280;11456;47.030;15.396;2023-07-28T04:35:21;97036.25;;;16.20;100.00
22580;BME280;11456;47.030;15.396;2023-07-28T04:38:14;97052.59;;;16.33;100.00
22580;BME280;11456;47.030;15.396;2023-07-28T04:40:47;97053.91;;;16.43;100.00
22580;BME280;11456;47.030;15.396;2023-07-28T04:43:17;97054.56;;;16.52;100.00
22580;BME280;11456;47.030;15.396;2023-07-28T04:45:50;97051.31;;;16.63;100.00
22580;BME280;11456;47.030;15.396;2023-07-28T04:48:19;97056.97;;;16.68;100.00
22580;BME280;11456;47.030;15.396;2023-07-28T04:50:46;97059.50;;;16.76;100.00
22580;BME280;11456;47.030;15.396;2023-07-28T04:53:31;97059.53;;;16.90;100.00
22580;BME280;11456;47.030;15.396;2023-07-28T04:56:16;97050.75;;;17.07;100.00
22580;BME280;11456;47.030;15.396;2023-07-28T04:58:42;97052.81;;;16.99;100.00
22580;BME280;11456;47.030;15.396;2023-07-28T05:01:09;97044.03;;;17.10;100.00
22580;BME280;11456;47.030;15.396;2023-07-28T05:03:37;97048.66;;;17.22;100.00
22580;BME280;11456;47.030;15.396;2023-07-28T05:06:17;97049.50;;;17.30;100.00
22580;BME280;11456;47.030;15.396;2023-07-28T05:08:44;97052.00;;;17.51;100.00
22580;BME280;11456;47.030;15.396;2023-07-28T05:11:12;97060.41;;;17.62;100.00
22580;BME280;11456;47.030;15.396;2023-07-28T05:13:39;97052.00;;;17.57;100.00
22580;BME280;11456;47.030;15.396;2023-07-28T05:16:05;97050.31;;;17.56;100.00
22580;BME280;11456;47.030;15.396;2023-07-28T05:18:52;97061.03;;;17.65;100.00
22580;BME280;11456;47.030;15.396;2023-07-28T05:21:39;97054.28;;;17.93;100.00
22580;BME280;11456;47.030;15.396;2023-07-28T05:24:08;97052.53;;;18.12;100.00
22580;BME280;11456;47.030;15.396;2023-07-28T05:26:35;97059.59;;;18.39;100.00
22580;BME280;11456;47.030;15.396;2023-07-28T05:29:02;97051.31;;;18.66;100.00
22580;BME280;11456;47.030;15.396;2023-07-28T05:31:29;97060.06;;;18.23;100.00
22580;BME280;11456;47.030;15.396;2023-07-28T05:33:56;97054.31;;;18.44;100.00
22580;BME280;11456;47.030;15.396;2023-07-28T05:36:22;97054.06;;;18.53;100.00
22580;BME280;11456;47.030;15.396;2023-07-28T05:38:52;97053.66;;;19.00;98.24
22580;BME280;11456;47.030;15.396;2023-07-28T05:41:21;97050.53;;;19.21;96.45
22580;BME280;11456;47.030;15.396;2023-07-28T05:43:48;97045.41;;;19.63;96.93
22580;BME280;11456;47.030;15.396;2023-07-28T05:46:18;97048.59;;;20.03;94.19
22580;BME280;11456;47.030;15.396;2023-07-28T05:48:46;97048.88;;;20.13;89.43
22580;BME280;11456;47.030;15.396;2023-07-28T05:51:12;97046.38;;;20.12;88.55
22580;BME280;11456;47.030;15.396;2023-07-28T05:53:39;97048.44;;;20.16;90.97
22580;BME280;11456;47.030;15.396;2023-07-28T05:56:07;97041.94;;;20.35;85.80
22580;BME280;11456;47.030;15.396;2023-07-28T05:58:34;97048.47;;;20.83;87.51
22580;BME280;11456;47.030;15.396;2023-07-28T06:01:01;97043.63;;;20.96;85.12
22580;BME280;11456;47.030;15.396;2023-07-28T06:03:47;97042.81;;;20.96;82.59
22580;BME280;11456;47.030;15.396;2023-07-28T06:06:20;97034.72;;;21.01;85.97
22580;BME280;11456;47.030;15.396;2023-07-28T06:08:47;97037.09;;;21.27;85.11
22580;BME280;11456;47.030;15.396;2023-07-28T06:11:14;97040.72;;;21.63;80.38
22580;BME280;11456;47.030;15.396;2023-07-28T06:13:40;97039.66;;;22.10;76.98
22580;BME280;11456;47.030;15.396;2023-07-28T06:16:07;97046.81;;;22.11;77.16
22580;BME280;11456;47.030;15.396;2023-07-28T06:18:33;97045.47;;;21.44;79.85
22580;BME280;11456;47.030;15.396;2023-07-28T06:21:11;97053.72;;;21.55;79.09
22580;BME280;11456;47.030;15.396;2023-07-28T06:23:38;97052.59;;;21.03;83.78
22580;BME280;11456;47.030;15.396;2023-07-28T06:26:04;97067.69;;;21.24;86.13
22580;BME280;11456;47.030;15.396;2023-07-28T06:28:31;97056.44;;;21.55;83.91
22580;BME280;11456;47.030;15.396;2023-07-28T06:30:58;97053.84;;;22.19;81.96
22580;BME280;11456;47.030;15.396;2023-07-28T06:33:27;97049.91;;;22.26;79.72
22580;BME280;11456;47.030;15.396;2023-07-28T06:35:54;97058.97;;;22.15;79.78
22580;BME280;11456;47.030;15.396;2023-07-28T06:38:21;97062.91;;;21.96;80.65
22580;BME280;11456;47.030;15.396;2023-07-28T06:40:47;97061.06;;;22.48;80.29
22580;BME280;11456;47.030;15.396;2023-07-28T06:43:14;97063.94;;;22.42;76.16
22580;BME280;11456;47.030;15.396;2023-07-28T06:45:41;97061.25;;;22.82;74.82
22580;BME280;11456;47.030;15.396;2023-07-28T06:48:07;97063.53;;;22.61;75.43
22580;BME280;11456;47.030;15.396;2023-07-28T06:50:34;97064.91;;;22.35;77.44
22580;BME280;11456;47.030;15.396;2023-07-28T06:53:01;97060.38;;;22.29;80.09
22580;BME280;11456;47.030;15.396;2023-07-28T06:55:28;97067.50;;;22.54;78.24
22580;BME280;11456;47.030;15.396;2023-07-28T06:57:54;97058.19;;;23.51;73.41
22580;BME280;11456;47.030;15.396;2023-07-28T07:00:21;97059.69;;;24.26;72.28
22580;BME280;11456;47.030;15.396;2023-07-28T07:02:48;97064.41;;;24.52;69.41
22580;BME280;11456;47.030;15.396;2023-07-28T07:05:15;97063.53;;;24.47;66.51
22580;BME280;11456;47.030;15.396;2023-07-28T07:07:41;97060.66;;;24.20;68.36
22580;BME280;11456;47.030;15.396;2023-07-28T07:10:08;97061.22;;;24.39;66.80
22580;BME280;11456;47.030;15.396;2023-07-28T07:12:35;97061.31;;;24.27;68.29
22580;BME280;11456;47.030;15.396;2023-07-28T07:15:02;97061.75;;;24.57;65.50
22580;BME280;11456;47.030;15.396;2023-07-28T07:17:29;97062.91;;;24.61;65.53
22580;BME280;11456;47.030;15.396;2023-07-28T07:19:55;97058.75;;;24.20;67.54
22580;BME280;11456;47.030;15.396;2023-07-28T07:22:22;97069.06;;;24.68;64.04
22580;BME280;11456;47.030;15.396;2023-07-28T07:24:48;97060.94;;;25.00;63.54
22580;BME280;11456;47.030;15.396;2023-07-28T07:27:15;97062.91;;;25.32;61.38
22580;BME280;11456;47.030;15.396;2023-07-28T07:29:42;97061.91;;;25.16;61.78
22580;BME280;11456;47.030;15.396;2023-07-28T07:32:09;97052.34;;;25.24;62.84
22580;BME280;11456;47.030;15.396;2023-07-28T07:34:37;97037.97;;;24.73;65.64
22580;BME280;11456;47.030;15.396;2023-07-28T07:37:04;97032.47;;;24.73;65.27
22580;BME280;11456;47.030;15.396;2023-07-28T07:39:31;97035.44;;;24.66;61.31
22580;BME280;11456;47.030;15.396;2023-07-28T07:41:58;97044.53;;;24.89;59.76
22580;BME280;11456;47.030;15.396;2023-07-28T07:44:25;97045.81;;;24.81;61.23
22580;BME280;11456;47.030;15.396;2023-07-28T07:46:51;97042.53;;;25.33;58.43
22580;BME280;11456;47.030;15.396;2023-07-28T07:49:18;97044.50;;;25.37;60.11
22580;BME280;11456;47.030;15.396;2023-07-28T07:51:45;97040.94;;;26.06;56.63
22580;BME280;11456;47.030;15.396;2023-07-28T07:54:12;97044.50;;;25.37;57.62
22580;BME280;11456;47.030;15.396;2023-07-28T07:56:42;97057.50;;;25.42;56.43
22580;BME280;11456;47.030;15.396;2023-07-28T07:59:08;97043.84;;;25.84;56.07
22580;BME280;11456;47.030;15.396;2023-07-28T08:01:35;97063.50;;;26.29;54.29
22580;BME280;11456;47.030;15.396;2023-07-28T08:04:02;97053.53;;;26.76;52.46
22580;BME280;11456;47.030;15.396;2023-07-28T08:06:29;97050.66;;;27.12;51.56
22580;BME280;11456;47.030;15.396;2023-07-28T08:08:55;97038.59;;;26.77;50.84
22580;BME280;11456;47.030;15.396;2023-07-28T08:11:24;97054.09;;;26.83;52.29
22580;BME280;11456;47.030;15.396;2023-07-28T08:13:50;97057.94;;;27.54;48.71
22580;BME280;11456;47.030;15.396;2023-07-28T08:16:17;97059.31;;;26.74;50.72
22580;BME280;11456;47.030;15.396;2023-07-28T08:18:43;97055.56;;;26.95;51.82
22580;BME280;11456;47.030;15.396;2023-07-28T08:21:10;97056.44;;;27.16;54.42
22580;BME280;11456;47.030;15.396;2023-07-28T08:23:37;97062.34;;;26.67;52.69
22580;BME280;11456;47.030;15.396;2023-07-28T08:26:03;97056.47;;;26.59;56.07
22580;BME280;11456;47.030;15.396;2023-07-28T08:28:30;97069.59;;;27.71;54.59
22580;BME280;11456;47.030;15.396;2023-07-28T08:30:59;97071.53;;;27.76;51.17
22580;BME280;11456;47.030;15.396;2023-07-28T08:33:25;97064.00;;;28.52;49.84
22580;BME280;11456;47.030;15.396;2023-07-28T08:35:52;97064.59;;;27.63;49.88
22580;BME280;11456;47.030;15.396;2023-07-28T08:38:19;97065.13;;;28.31;49.03
22580;BME280;11456;47.030;15.396;2023-07-28T08:40:45;97071.34;;;29.52;43.36
22580;BME280;11456;47.030;15.396;2023-07-28T08:43:12;97066.47;;;29.28;48.15
22580;BME280;11456;47.030;15.396;2023-07-28T08:45:39;97067.75;;;28.97;45.03
22580;BME280;11456;47.030;15.396;2023-07-28T08:48:05;97061.84;;;29.63;44.01
22580;BME280;11456;47.030;15.396;2023-07-28T08:50:32;97055.84;;;28.91;45.63
22580;BME280;11456;47.030;15.396;2023-07-28T08:52:59;97062.06;;;28.48;41.79
22580;BME280;11456;47.030;15.396;2023-07-28T08:55:26;97060.16;;;27.52;45.11
22580;BME280;11456;47.030;15.396;2023-07-28T08:57:53;97059.63;;;26.83;49.66
22580;BME280;11456;47.030;15.396;2023-07-28T09:00:20;97059.44;;;26.94;46.58
22580;BME280;11456;47.030;15.396;2023-07-28T09:02:48;97057.06;;;29.19;40.66
22580;BME280;11456;47.030;15.396;2023-07-28T09:05:21;97059.31;;;28.33;42.96
22580;BME280;11456;47.030;15.396;2023-07-28T09:07:50;97047.81;;;28.90;42.30
22580;BME280;11456;47.030;15.396;2023-07-28T09:10:18;97051.44;;;30.41;38.24
22580;BME280;11456;47.030;15.396;2023-07-28T09:12:46;97048.94;;;29.82;42.40
22580;BME280;11456;47.030;15.396;2023-07-28T09:15:13;97044.13;;;29.93;41.78
22580;BME280;11456;47.030;15.396;2023-07-28T09:17:43;97052.03;;;29.31;42.46
22580;BME280;11456;47.030;15.396;2023-07-28T09:20:14;97051.03;;;28.17;41.50
22580;BME280;11456;47.030;15.396;2023-07-28T09:22:42;97041.78;;;28.67;41.14
22580;BME280;11456;47.030;15.396;2023-07-28T09:25:13;97045.22;;;29.58;38.31
22580;BME280;11456;47.030;15.396;2023-07-28T09:27:40;97047.50;;;29.51;36.59
22580;BME280;11456;47.030;15.396;2023-07-28T09:30:07;97042.78;;;29.85;37.71
22580;BME280;11456;47.030;15.396;2023-07-28T09:32:34;97043.91;;;31.37;38.30
22580;BME280;11456;47.030;15.396;2023-07-28T09:35:07;97048.78;;;30.84;37.88
22580;BME280;11456;47.030;15.396;2023-07-28T09:37:39;97032.28;;;31.72;35.54
22580;BME280;11456;47.030;15.396;2023-07-28T09:40:10;97032.44;;;30.77;36.62
22580;BME280;11456;47.030;15.396;2023-07-28T09:42:41;97028.00;;;30.76;36.81
22580;BME280;11456;47.030;15.396;2023-07-28T09:45:08;97032.94;;;30.84;36.15
22580;BME280;11456;47.030;15.396;2023-07-28T09:47:52;97029.84;;;30.62;36.18
22580;BME280;11456;47.030;15.396;2023-07-28T09:50:22;97032.22;;;30.50;35.82
22580;BME280;11456;47.030;15.396;2023-07-28T09:52:52;97038.72;;;30.64;36.49
22580;BME280;11456;47.030;15.396;2023-07-28T09:55:19;97026.81;;;30.06;36.42
22580;BME280;11456;47.030;15.396;2023-07-28T09:57:49;97025.00;;;29.86;41.47
22580;BME280;11456;47.030;15.396;2023-07-28T10:00:17;97024.28;;;30.62;38.27
22580;BME280;11456;47.030;15.396;2023-07-28T10:02:45;97030.06;;;30.89;36.68
22580;BME280;11456;47.030;15.396;2023-07-28T10:05:12;97020.91;;;30.12;39.25
22580;BME280;11456;47.030;15.396;2023-07-28T10:07:42;97017.38;;;31.63;35.97
22580;BME280;11456;47.030;15.396;2023-07-28T10:10:12;97020.16;;;30.59;38.07
22580;BME280;11456;47.030;15.396;2023-07-28T10:12:41;97013.00;;;30.24;39.19
22580;BME280;11456;47.030;15.396;2023-07-28T10:15:11;97005.50;;;29.62;41.00
22580;BME280;11456;47.030;15.396;2023-07-28T10:17:38;97012.16;;;30.00;39.15
22580;BME280;11456;47.030;15.396;2023-07-28T10:20:31;97013.72;;;30.64;38.17
22580;BME280;11456;47.030;15.396;2023-07-28T10:25:56;97022.00;;;31.87;35.09
22580;BME280;11456;47.030;15.396;2023-07-28T10:28:37;97017.47;;;31.91;35.72
22580;BME280;11456;47.030;15.396;2023-07-28T10:31:10;97029.59;;;31.06;35.24
22580;BME280;11456;47.030;15.396;2023-07-28T10:33:38;97025.25;;;31.37;35.83
22580;BME280;11456;47.030;15.396;2023-07-28T10:38:43;97019.13;;;32.84;33.81
22580;BME280;11456;47.030;15.396;2023-07-28T10:41:17;97013.94;;;32.91;32.83
22580;BME280;11456;47.030;15.396;2023-07-28T10:43:45;97020.34;;;33.91;31.92
22580;BME280;11456;47.030;15.396;2023-07-28T10:46:15;97025.44;;;34.42;30.57
22580;BME280;11456;47.030;15.396;2023-07-28T10:48:46;97024.75;;;31.54;35.28
22580;BME280;11456;47.030;15.396;2023-07-28T10:51:19;97020.91;;;32.34;32.07
22580;BME280;11456;47.030;15.396;2023-07-28T10:53:49;97025.66;;;30.36;35.83
22580;BME280;11456;47.030;15.396;2023-07-28T10:56:16;97028.97;;;30.38;38.54
22580;BME280;11456;47.030;15.396;2023-07-28T10:58:42;97034.50;;;30.90;35.73
22580;BME280;11456;47.030;15.396;2023-07-28T11:01:09;97029.94;;;31.23;37.47
22580;BME280;11456;47.030;15.396;2023-07-28T11:03:36;97017.63;;;32.45;31.22
22580;BME280;11456;47.030;15.396;2023-07-28T11:06:03;97015.88;;;33.90;31.73
22580;BME280;11456;47.030;15.396;2023-07-28T11:08:29;97016.56;;;33.37;31.41
22580;BME280;11456;47.030;15.396;2023-07-28T11:10:56;97020.50;;;32.40;32.37
22580;BME280;11456;47.030;15.396;2023-07-28T11:13:23;97018.66;;;33.04;31.23
22580;BME280;11456;47.030;15.396;2023-07-28T11:16:06;97017.88;;;33.53;31.63
22580;BME280;11456;47.030;15.396;2023-07-28T11:18:34;97012.72;;;32.70;31.92
22580;BME280;11456;47.030;15.396;2023-07-28T11:21:00;97014.34;;;32.84;31.92
22580;BME280;11456;47.030;15.396;2023-07-28T11:23:27;97015.78;;;32.54;32.38
22580;BME280;11456;47.030;15.396;2023-07-28T11:25:55;97027.44;;;31.22;35.41
22580;BME280;11456;47.030;15.396;2023-07-28T11:28:22;97015.69;;;31.25;36.00
22580;BME280;11456;47.030;15.396;2023-07-28T11:30:49;97013.72;;;31.06;36.62
22580;BME280;11456;47.030;15.396;2023-07-28T11:33:15;97012.16;;;30.00;39.22
22580;BME280;11456;47.030;15.396;2023-07-28T11:35:43;97011.41;;;30.71;39.08
22580;BME280;11456;47.030;15.396;2023-07-28T11:38:11;97009.19;;;30.15;39.38
22580;BME280;11456;47.030;15.396;2023-07-28T11:40:37;97012.38;;;29.70;41.28
22580;BME280;11456;47.030;15.396;2023-07-28T11:43:04;97004.19;;;29.88;40.99
22580;BME280;11456;47.030;15.396;2023-07-28T11:45:31;97007.94;;;29.69;41.01
22580;BME280;11456;47.030;15.396;2023-07-28T11:48:05;97004.44;;;29.92;39.99
22580;BME280;11456;47.030;15.396;2023-07-28T11:50:39;97010.91;;;29.82;39.36
22580;BME280;11456;47.030;15.396;2023-07-28T11:53:06;96997.56;;;30.13;41.47
22580;BME280;11456;47.030;15.396;2023-07-28T11:55:34;96990.13;;;31.79;38.67
22580;BME280;11456;47.030;15.396;2023-07-28T11:58:02;96988.13;;;32.12;39.14
22580;BME280;11456;47.030;15.396;2023-07-28T12:00:37;96987.59;;;32.10;39.03
22580;BME280;11456;47.030;15.396;2023-07-28T12:03:05;96987.72;;;31.72;38.47
22580;BME280;11456;47.030;15.396;2023-07-28T12:05:32;96993.31;;;31.35;41.94
22580;BME280;11456;47.030;15.396;2023-07-28T12:08:16;96983.81;;;31.73;38.48
22580;BME280;11456;47.030;15.396;2023-07-28T12:10:59;96977.56;;;32.41;36.19
22580;BME280;11456;47.030;15.396;2023-07-28T12:13:28;96986.97;;;33.50;35.54
22580;BME280;11456;47.030;15.396;2023-07-28T12:15:58;96985.06;;;33.59;32.82
22580;BME280;11456;47.030;15.396;2023-07-28T12:18:29;96986.88;;;32.50;35.34
22580;BME280;11456;47.030;15.396;2023-07-28T12:20:59;96991.44;;;31.68;36.76
22580;BME280;11456;47.030;15.396;2023-07-28T12:23:26;96990.41;;;31.77;36.81
22580;BME280;11456;47.030;15.396;2023-07-28T12:25:56;96986.84;;;31.91;36.10
22580;BME280;11456;47.030;15.396;2023-07-28T12:28:25;96977.38;;;32.79;35.15
22580;BME280;11456;47.030;15.396;2023-07-28T12:30:52;96973.63;;;32.97;34.90
22580;BME280;11456;47.030;15.396;2023-07-28T12:33:22;96973.47;;;32.80;33.87
22580;BME280;11456;47.030;15.396;2023-07-28T12:35:49;96975.03;;;31.66;34.67
22580;BME280;11456;47.030;15.396;2023-07-28T12:38:18;96967.78;;;31.98;34.88
22580;BME280;11456;47.030;15.396;2023-07-28T12:40:47;96972.22;;;31.48;38.39
22580;BME280;11456;47.030;15.396;2023-07-28T12:43:17;96966.38;;;31.49;37.89
22580;BME280;11456;47.030;15.396;2023-07-28T12:45:47;96971.50;;;31.42;38.52
22580;BME280;11456;47.030;15.396;2023-07-28T12:48:17;96974.66;;;31.17;38.76
22580;BME280;11456;47.030;15.396;2023-07-28T12:50:47;96975.34;;;31.09;39.95
22580;BME280;11456;47.030;15.396;2023-07-28T12:53:14;96973.09;;;31.11;41.07
22580;BME280;11456;47.030;15.396;2023-07-28T12:55:48;96971.22;;;31.76;39.58
22580;BME280;11456;47.030;15.396;2023-07-28T12:58:18;96961.22;;;32.21;40.53